Terminal Aerodrome Forecast
Issued by NWS Greer, SC

Home | Current Version | Previous Version | Text Only | Print | Product List | Glossary On
Versions: 1 2 3 4 5 6 7 8 9 10 11 12 13 14 15 16 17 18 19 20 21 22
000
FTUS42 KGSP 300527
TAFGSP
TAF
KGSP 300527Z 3006/3106 25003KT P6SM FEW060
      TEMPO 3010/3012 33004KT 5SM BR SCT024
     FM301700 23005KT P6SM BKN060 PROB30 3017/3021 4SM TSRA BKN040CB
     FM310000 35004KT P6SM BKN045
     FM310100 01003KT P6SM SCT050=

USA.gov is the U.S. government's official web portal to all federal, state and local government web resources and services.